Time;durP1;ratioP1;P1;durP2;ratioP2;P2;SDS_P1;SDS_P2;PMS_P1;PMS_P2;Temp;Humidity;BMP_temperature;BMP_pressure;BME280_temperature;BME280_humidity;BME280_pressure;Samples;Min_cycle;Max_cycle;Signal;HPM_P1;HPM_P2
2021/12/02 00:02:16;;;;;;;12.50;2.47;;;6.80;99.90;;;4.56;100.00;98716.22;5049235;28;20041;-87
2021/12/02 00:04:44;;;;;;;14.43;2.60;;;6.80;99.90;;;4.55;100.00;98719.94;5041093;28;20493;-87
2021/12/02 00:07:12;;;;;;;15.60;2.30;;;6.80;99.90;;;4.58;100.00;98714.16;5049481;28;20041;-87
2021/12/02 00:09:42;;;;;;;13.32;2.55;;;6.80;99.90;;;4.55;100.00;98717.25;5049254;28;20509;-87
2021/12/02 00:12:10;;;;;;;10.23;2.05;;;6.80;99.90;;;4.57;100.00;98720.59;5049357;28;20068;-88
2021/12/02 00:14:44;;;;;;;12.70;2.08;;;6.80;99.90;;;4.56;100.00;98721.59;5036324;28;20041;-87
2021/12/02 00:17:17;;;;;;;18.90;3.28;;;6.80;99.90;;;4.55;100.00;98721.78;5029481;28;20045;-88
2021/12/02 00:22:31;;;;;;;12.68;2.20;;;6.80;99.90;;;4.48;100.00;98735.19;5029045;28;20045;-87
2021/12/02 00:25:04;;;;;;;17.20;2.55;;;6.80;99.90;;;4.54;100.00;98728.22;5037664;28;20071;-87
2021/12/02 00:27:32;;;;;;;15.10;2.45;;;6.80;99.90;;;4.54;100.00;98733.59;5048907;28;20049;-87
2021/12/02 00:30:02;;;;;;;12.70;2.33;;;6.80;99.90;;;4.51;100.00;98729.41;5048219;28;20045;-87
2021/12/02 00:32:31;;;;;;;13.80;2.40;;;6.80;99.90;;;4.58;100.00;98733.03;5047586;28;20044;-87
2021/12/02 00:34:58;;;;;;;17.92;2.92;;;6.80;99.90;;;4.57;100.00;98742.13;5040449;28;20047;-87
2021/12/02 00:37:27;;;;;;;14.73;2.13;;;6.90;99.90;;;4.59;100.00;98741.94;5048978;28;20103;-87
2021/12/02 00:39:55;;;;;;;15.13;2.78;;;6.80;99.90;;;4.54;100.00;98734.44;5048760;28;20041;-87
2021/12/02 00:42:26;;;;;;;9.40;2.40;;;6.80;99.90;;;4.60;100.00;98736.34;5048847;28;20048;-87
2021/12/02 00:44:58;;;;;;;11.65;2.58;;;6.80;99.90;;;4.59;100.00;98734.69;5039762;28;20464;-88
2021/12/02 00:47:26;;;;;;;14.23;3.10;;;6.90;99.90;;;4.58;100.00;98745.66;5046729;28;20076;-87
2021/12/02 00:49:53;;;;;;;17.08;2.78;;;6.90;99.90;;;4.58;100.00;98730.31;5028599;28;20049;-88
2021/12/02 00:52:21;;;;;;;15.13;2.38;;;6.80;99.90;;;4.62;100.00;98742.38;5028616;28;20045;-87
2021/12/02 00:54:49;;;;;;;17.80;2.90;;;6.90;99.90;;;4.60;100.00;98739.03;5041696;28;20049;-87
2021/12/02 00:57:16;;;;;;;11.68;2.60;;;6.80;99.90;;;4.60;100.00;98741.75;5048509;28;20049;-87
2021/12/02 00:59:48;;;;;;;12.60;2.90;;;6.90;99.90;;;4.60;100.00;98741.75;5048421;28;20066;-87
2021/12/02 01:02:18;;;;;;;13.10;2.60;;;6.80;99.90;;;4.60;100.00;98744.44;5048353;28;20128;-87
2021/12/02 01:04:48;;;;;;;11.73;2.55;;;6.90;99.90;;;4.62;100.00;98747.78;5040057;28;20073;-87
2021/12/02 01:07:16;;;;;;;11.38;2.60;;;6.90;99.90;;;4.64;100.00;98748.41;5048360;28;20091;-88
2021/12/02 01:09:43;;;;;;;12.60;2.25;;;6.80;99.90;;;4.60;100.00;98739.03;5048324;28;20505;-87
2021/12/02 01:12:10;;;;;;;16.15;2.65;;;6.90;99.90;;;4.63;100.00;98752.16;5048520;28;20087;-88
2021/12/02 01:14:38;;;;;;;8.65;2.65;;;6.90;99.90;;;4.64;100.00;98750.28;5040174;28;20114;-87
2021/12/02 01:17:07;;;;;;;11.05;2.42;;;6.90;99.90;;;4.63;100.00;98746.75;5048400;28;20072;-87
2021/12/02 01:19:34;;;;;;;8.55;2.50;;;6.80;99.90;;;4.65;100.00;98754.66;5047243;28;20077;-87
2021/12/02 01:22:02;;;;;;;11.93;2.38;;;6.80;99.90;;;4.65;100.00;98747.41;5046449;28;20128;-87
2021/12/02 01:24:31;;;;;;;13.77;2.72;;;6.80;99.90;;;4.65;100.00;98755.50;5041439;28;20068;-88
2021/12/02 01:27:02;;;;;;;16.30;2.88;;;6.90;99.90;;;4.65;100.00;98752.78;5048273;28;20052;-87
2021/12/02 01:29:29;;;;;;;9.63;2.65;;;6.90;99.90;;;4.63;100.00;98754.84;5048108;28;20052;-87
2021/12/02 01:32:03;;;;;;;12.70;2.30;;;6.90;99.90;;;4.57;100.00;98758.31;5048067;28;20068;-86
2021/12/02 01:34:32;;;;;;;12.43;2.47;;;6.90;99.90;;;4.59;100.00;98752.69;5040300;28;20068;-87
2021/12/02 01:37:01;;;;;;;10.32;2.40;;;6.80;99.90;;;4.61;100.00;98756.91;5048147;28;20076;-87
2021/12/02 01:39:30;;;;;;;11.68;2.63;;;6.90;99.90;;;4.61;100.00;98751.50;5048033;28;20064;-88
2021/12/02 01:42:00;;;;;;;13.82;2.83;;;7.00;99.90;;;4.68;100.00;98752.44;5048865;28;20044;-87
2021/12/02 01:44:29;;;;;;;13.50;2.83;;;6.90;99.90;;;4.67;100.00;98756.13;5043634;28;20129;-87
2021/12/02 01:46:59;;;;;;;13.60;2.70;;;6.90;99.90;;;4.62;100.00;98753.16;5050719;28;20057;-87
2021/12/02 01:49:30;;;;;;;11.83;2.77;;;6.90;99.90;;;4.62;100.00;98763.13;5033104;28;20046;-88
2021/12/02 01:52:02;;;;;;;13.68;2.35;;;6.90;99.90;;;4.62;100.00;98763.13;5032214;28;20037;-87
2021/12/02 01:54:29;;;;;;;9.15;2.45;;;7.00;99.90;;;4.57;100.00;98755.63;5040942;28;20060;-88
2021/12/02 01:57:05;;;;;;;10.25;2.80;;;6.90;99.90;;;4.54;100.00;98750.59;5051757;28;20045;-87
2021/12/02 01:59:35;;;;;;;13.80;3.03;;;6.90;99.90;;;4.56;100.00;98753.09;5051444;28;20049;-87
2021/12/02 02:02:06;;;;;;;10.98;2.40;;;6.90;99.90;;;4.56;100.00;98753.94;5051683;28;20500;-87
2021/12/02 02:04:36;;;;;;;13.05;3.00;;;6.90;99.90;;;4.56;100.00;98758.50;5043109;28;20037;-87
2021/12/02 02:07:11;;;;;;;15.55;2.95;;;6.90;99.90;;;4.59;100.00;98763.47;5049967;28;20481;-88
2021/12/02 02:09:42;;;;;;;19.70;3.40;;;6.90;99.90;;;4.50;100.00;98757.38;5049635;28;20045;-88
2021/12/02 02:12:12;;;;;;;12.20;2.97;;;6.80;99.90;;;4.53;100.00;98759.69;5051683;28;20102;-87
2021/12/02 02:14:42;;;;;;;12.65;3.10;;;6.80;99.90;;;4.54;100.00;98758.69;5047854;28;20516;-88
2021/12/02 02:17:16;;;;;;;13.15;3.20;;;6.80;99.90;;;4.49;100.00;98751.16;5051638;28;20076;-88
2021/12/02 02:19:45;;;;;;;12.88;3.03;;;6.80;99.90;;;4.52;100.00;98760.72;5051198;28;20593;-87
2021/12/02 02:22:19;;;;;;;13.38;2.70;;;6.80;99.90;;;4.56;100.00;98759.31;5049918;28;20143;-88
2021/12/02 02:24:47;;;;;;;11.02;2.58;;;6.80;99.90;;;4.58;100.00;98751.88;5044871;28;20061;-87
2021/12/02 02:27:14;;;;;;;12.27;2.80;;;6.80;99.90;;;4.55;100.00;98749.59;5029624;28;20049;-87
2021/12/02 02:29:42;;;;;;;16.35;3.08;;;6.80;99.90;;;4.50;100.00;98742.06;5029913;28;20812;-87
2021/12/02 02:32:09;;;;;;;15.93;2.78;;;6.80;99.90;;;4.45;100.00;98736.38;5031237;28;20045;-87
2021/12/02 02:34:37;;;;;;;10.65;3.00;;;6.80;99.90;;;4.56;100.00;98740.47;5038649;28;20094;-87
2021/12/02 02:37:06;;;;;;;11.13;2.97;;;6.80;99.90;;;4.51;100.00;98745.56;5049632;28;20643;-88
2021/12/02 02:39:36;;;;;;;9.02;2.72;;;6.80;99.90;;;4.48;100.00;98740.59;5050876;28;20045;-87
2021/12/02 02:42:06;;;;;;;14.43;3.30;;;6.80;99.90;;;4.50;100.00;98743.91;5051039;28;20044;-87
2021/12/02 02:44:35;;;;;;;7.03;2.65;;;6.80;99.90;;;4.54;100.00;98741.69;5042655;28;20033;-89
2021/12/02 02:47:03;;;;;;;16.65;3.50;;;6.80;99.90;;;4.53;100.00;98748.91;5049647;28;20053;-87
2021/12/02 02:49:30;;;;;;;11.40;2.65;;;6.80;99.90;;;4.56;100.00;98739.63;5031471;28;20045;-88
2021/12/02 02:51:57;;;;;;;13.38;3.05;;;6.80;99.90;;;4.55;100.00;98743.34;5031300;28;20048;-87
2021/12/02 02:54:25;;;;;;;7.88;2.35;;;6.80;99.90;;;4.53;100.00;98748.06;5047272;28;20568;-88
2021/12/02 02:57:01;;;;;;;11.13;2.50;;;6.80;99.90;;;4.49;100.00;98753.00;5049421;28;20053;-86
2021/12/02 02:59:37;;;;;;;12.40;2.40;;;6.80;99.90;;;4.49;100.00;98747.63;5050618;28;20132;-86
2021/12/02 03:02:10;;;;;;;14.80;2.50;;;6.70;99.90;;;4.50;100.00;98754.69;5050695;28;20045;-87
2021/12/02 03:04:44;;;;;;;11.05;2.50;;;6.70;99.90;;;4.52;100.00;98757.19;5042251;28;20102;-86
2021/12/02 03:07:21;;;;;;;11.52;2.58;;;6.80;99.90;;;4.50;100.00;98750.13;5050636;28;20170;-86
2021/12/02 03:10:01;;;;;;;13.25;2.55;;;6.70;99.90;;;4.50;100.00;98749.31;5042368;28;20501;-86
2021/12/02 03:12:35;;;;;;;9.60;2.50;;;6.70;99.90;;;4.52;100.00;98755.34;5030503;28;20562;-86
2021/12/02 03:17:48;;;;;;;16.58;2.75;;;6.70;99.90;;;4.56;100.00;98759.31;5050237;28;20049;-86
2021/12/02 03:20:16;;;;;;;9.05;2.28;;;6.70;99.90;;;4.57;100.00;98757.44;5046875;28;20071;-86
2021/12/02 03:22:44;;;;;;;12.13;2.65;;;6.70;99.90;;;4.59;100.00;98758.94;5050203;28;20045;-86
2021/12/02 03:25:12;;;;;;;10.85;2.30;;;6.70;99.90;;;4.57;100.00;98750.22;5045895;28;20527;-86
2021/12/02 03:27:41;;;;;;;10.57;2.30;;;6.70;99.90;;;4.57;100.00;98755.63;5048769;28;20072;-87
2021/12/02 03:30:09;;;;;;;12.90;2.38;;;6.70;99.90;;;4.60;100.00;98757.91;5048809;28;20316;-86
2021/12/02 03:32:37;;;;;;;11.93;2.10;;;6.70;99.90;;;4.58;100.00;98756.44;5048475;28;20080;-86
2021/12/02 03:35:07;;;;;;;9.48;2.90;;;6.80;99.90;;;4.59;100.00;98758.94;5042043;28;20594;-86
2021/12/02 03:37:35;;;;;;;12.98;2.55;;;6.80;99.90;;;4.60;100.00;98759.78;5048323;28;20053;-87
2021/12/02 03:40:03;;;;;;;10.00;2.85;;;6.70;99.90;;;4.58;100.00;98765.34;5048302;28;20137;-87
2021/12/02 03:42:31;;;;;;;7.72;2.50;;;6.80;99.90;;;4.57;100.00;98766.38;5049611;28;20622;-87
2021/12/02 03:44:59;;;;;;;9.02;2.70;;;6.80;99.90;;;4.56;100.00;98764.72;5040631;28;20631;-87
2021/12/02 03:47:27;;;;;;;14.15;2.88;;;6.80;99.90;;;4.56;100.00;98761.19;5047147;28;20517;-86
2021/12/02 03:49:54;;;;;;;8.48;2.47;;;6.80;99.90;;;4.56;100.00;98759.31;5028193;28;20081;-86
2021/12/02 03:52:21;;;;;;;8.75;2.58;;;6.80;99.90;;;4.56;100.00;98759.31;5029808;28;20049;-86
2021/12/02 03:54:49;;;;;;;12.80;2.95;;;6.80;99.90;;;4.59;100.00;98763.47;5037051;28;20040;-86
2021/12/02 03:57:16;;;;;;;11.52;2.55;;;6.80;99.90;;;4.57;100.00;98761.00;5049693;28;20037;-87
2021/12/02 03:59:43;;;;;;;10.98;2.72;;;6.80;99.90;;;4.55;100.00;98757.66;5049316;28;20072;-87
2021/12/02 04:02:12;;;;;;;13.43;2.65;;;6.80;99.90;;;4.52;100.00;98763.41;5049465;28;20045;-87
2021/12/02 04:04:39;;;;;;;13.23;2.38;;;6.80;99.90;;;4.54;100.00;98757.84;5040016;28;20033;-86
2021/12/02 04:07:06;;;;;;;7.82;1.98;;;6.80;99.90;;;4.53;100.00;98762.38;5049298;28;20051;-86
2021/12/02 04:09:38;;;;;;;8.65;2.47;;;6.80;99.90;;;4.48;100.00;98757.56;5049043;28;20045;-87
2021/12/02 04:12:11;;;;;;;7.40;2.20;;;6.80;99.90;;;4.51;100.00;98769.81;5047736;28;20429;-87
2021/12/02 04:14:41;;;;;;;5.65;1.98;;;6.70;99.90;;;4.51;100.00;98767.13;5040512;28;20091;-86
2021/12/02 04:17:09;;;;;;;7.78;2.20;;;6.70;99.90;;;4.49;100.00;98770.03;5048967;28;20045;-87
2021/12/02 04:19:38;;;;;;;5.95;2.53;;;6.70;99.90;;;4.48;100.00;98762.13;5048921;28;20044;-87
2021/12/02 04:22:06;;;;;;;8.45;2.55;;;6.90;99.90;;;4.48;100.00;98752.19;5049089;28;20124;-87
2021/12/02 04:24:34;;;;;;;8.70;2.70;;;6.70;99.90;;;4.41;100.00;98764.72;5040522;28;20509;-87
2021/12/02 04:27:02;;;;;;;11.68;3.38;;;6.70;99.90;;;4.26;100.00;98759.34;5047484;28;20512;-86
2021/12/02 04:29:30;;;;;;;8.90;3.58;;;6.70;99.90;;;4.23;100.00;98761.63;5048907;28;20049;-86
2021/12/02 04:31:58;;;;;;;11.48;4.22;;;6.60;99.90;;;4.18;100.00;98778.31;5048916;28;20471;-86
2021/12/02 04:34:25;;;;;;;12.40;3.53;;;6.60;99.90;;;4.23;100.00;98781.28;5040617;28;20668;-87
2021/12/02 04:36:54;;;;;;;13.23;3.70;;;6.60;99.90;;;4.23;100.00;98786.66;5048858;28;20094;-86
2021/12/02 04:39:21;;;;;;;10.43;3.38;;;6.60;99.90;;;4.23;100.00;98786.66;5048599;28;20037;-86
2021/12/02 04:41:48;;;;;;;9.95;3.75;;;6.50;99.90;;;4.28;100.00;98789.66;5048619;28;20558;-87
2021/12/02 04:44:18;;;;;;;15.73;4.03;;;6.50;99.90;;;4.34;100.00;98785.38;5040132;28;20033;-87
2021/12/02 04:46:47;;;;;;;9.45;3.80;;;6.50;99.90;;;4.43;100.00;98786.09;5048460;28;20073;-87
2021/12/02 04:49:14;;;;;;;11.07;3.95;;;6.50;99.90;;;4.42;100.00;98779.88;5031232;28;20053;-87
2021/12/02 04:51:41;;;;;;;9.85;3.38;;;6.50;99.90;;;4.39;100.00;98791.00;5028514;28;20095;-87
2021/12/02 04:54:11;;;;;;;12.23;3.00;;;6.50;99.90;;;4.34;100.00;98781.81;5030213;28;20127;-86
2021/12/02 04:56:39;;;;;;;16.77;3.42;;;6.50;99.90;;;4.33;100.00;98781.00;5048492;28;20528;-87
2021/12/02 04:59:06;;;;;;;11.40;4.22;;;6.50;99.90;;;4.30;100.00;98787.59;5048116;28;20068;-87
2021/12/02 05:01:34;;;;;;;14.40;2.92;;;6.50;99.90;;;4.28;100.00;98789.66;5047083;28;20077;-87
2021/12/02 05:04:01;;;;;;;11.70;2.80;;;6.50;99.90;;;4.23;100.00;98786.66;5039851;28;20124;-87
2021/12/02 05:06:28;;;;;;;7.10;2.10;;;6.50;99.90;;;4.25;100.00;98790.00;5048155;28;20049;-87
2021/12/02 05:08:57;;;;;;;9.15;2.35;;;6.50;99.90;;;4.25;100.00;98792.69;5048115;28;20123;-87
2021/12/02 05:11:26;;;;;;;5.22;1.70;;;6.50;99.90;;;4.26;100.00;98786.28;5046697;28;20053;-86
2021/12/02 05:13:53;;;;;;;7.50;1.88;;;6.50;99.90;;;4.23;100.00;98789.38;5041134;28;20059;-82
2021/12/02 05:16:20;;;;;;;7.32;1.95;;;6.50;99.90;;;4.19;100.00;98790.75;5046913;28;20076;-85
2021/12/02 05:18:48;;;;;;;9.00;2.20;;;6.50;99.90;;;4.14;100.00;98795.88;5031924;28;20045;-87
2021/12/02 05:21:15;;;;;;;6.25;1.63;;;6.50;99.90;;;4.16;100.00;98795.69;5045769;28;20071;-82
2021/12/02 05:23:42;;;;;;;7.13;1.80;;;6.50;99.90;;;4.14;100.00;98792.34;5041852;28;20117;-82
2021/12/02 05:26:10;;;;;;;8.93;1.70;;;6.40;99.90;;;4.12;100.00;98792.53;5046275;28;20041;-82
2021/12/02 05:28:39;;;;;;;9.90;1.90;;;6.40;99.90;;;4.12;100.00;98789.84;5048157;28;20548;-83
2021/12/02 05:31:06;;;;;;;7.10;1.88;;;6.40;99.90;;;4.12;100.00;98784.44;5048003;28;20489;-82
2021/12/02 05:33:34;;;;;;;13.23;2.10;;;6.40;99.90;;;4.19;100.00;98787.22;5043242;28;20060;-82
2021/12/02 05:36:01;;;;;;;7.00;1.75;;;6.40;99.90;;;4.14;100.00;98774.31;5044874;28;20045;-82
2021/12/02 05:38:28;;;;;;;6.32;1.88;;;6.40;99.90;;;4.13;100.00;98780.72;5048169;28;20533;-83
2021/12/02 05:40:55;;;;;;;6.13;2.00;;;6.40;99.90;;;4.09;100.00;98785.66;5047937;28;20138;-83
2021/12/02 05:43:23;;;;;;;4.43;1.98;;;6.40;99.90;;;4.03;100.00;98785.56;5044795;28;20041;-89
2021/12/02 05:45:52;;;;;;;6.03;2.30;;;6.40;99.90;;;4.02;100.00;98783.91;5043692;28;20586;-86
2021/12/02 05:48:19;;;;;;;5.78;1.83;;;6.30;99.90;;;4.02;100.00;98791.97;5038426;28;20096;-87
2021/12/02 05:50:47;;;;;;;5.13;2.17;;;6.30;99.90;;;4.03;100.00;98785.56;5026650;28;20176;-86
2021/12/02 05:53:14;;;;;;;7.00;2.70;;;6.30;99.90;;;3.98;100.00;98783.44;5027655;28;20131;-88
2021/12/02 05:55:42;;;;;;;10.05;2.45;;;6.30;99.90;;;3.97;100.00;98783.59;5027529;28;20045;-87
2021/12/02 05:58:11;;;;;;;5.57;1.92;;;6.30;99.90;;;3.98;100.00;98782.56;5027790;28;20045;-87
2021/12/02 06:00:39;;;;;;;7.30;2.03;;;6.30;99.90;;;3.92;100.00;98789.53;5027629;28;20041;-88
2021/12/02 06:03:09;;;;;;;6.18;2.20;;;6.30;99.90;;;3.91;100.00;98801.31;5035362;28;20111;-87
2021/12/02 06:05:36;;;;;;;6.72;2.40;;;6.30;99.90;;;3.90;100.00;98796.94;5027673;28;20075;-90
2021/12/02 06:08:05;;;;;;;8.73;2.30;;;6.20;99.90;;;3.82;100.00;98799.72;5027899;28;20045;-87
2021/12/02 06:10:33;;;;;;;9.45;2.45;;;6.20;99.90;;;3.80;100.00;98802.59;5026300;28;20042;-89
2021/12/02 06:13:00;;;;;;;6.60;2.85;;;6.20;99.90;;;3.75;100.00;98805.03;5026481;28;20127;-89
2021/12/02 06:15:30;;;;;;;5.10;2.83;;;6.20;99.90;;;3.69;100.00;98814.66;5027740;28;20037;-91
2021/12/02 06:25:17;;;;;;;6.63;2.97;;;6.10;99.90;;;3.77;100.00;98810.19;4985727;28;20062;-88
2021/12/02 06:27:50;;;;;;;7.07;3.42;;;6.10;99.90;;;3.80;100.00;98815.22;4969355;28;20065;-87
2021/12/02 06:30:22;;;;;;;10.38;3.55;;;6.00;99.90;;;3.85;100.00;98835.19;4973346;28;20164;-91
2021/12/02 06:32:50;;;;;;;7.00;2.97;;;6.10;99.90;;;3.85;100.00;98827.13;4994568;28;20050;-94
2021/12/02 06:35:42;;;;;;;12.43;4.55;;;6.10;99.90;;;3.86;100.00;98827.94;4987168;28;20064;-91
2021/12/02 06:38:12;;;;;;;10.13;4.22;;;6.10;99.90;;;3.84;100.00;98829.97;4982910;28;20046;-91
2021/12/02 06:40:42;;;;;;;9.00;4.50;;;6.10;99.90;;;3.79;100.00;98822.47;4972998;28;20042;-92
2021/12/02 06:43:10;;;;;;;9.05;4.80;;;6.10;99.90;;;3.85;100.00;98837.88;4989327;28;20078;-93
2021/12/02 06:45:38;;;;;;;10.27;4.25;;;6.10;99.90;;;3.84;100.00;98838.88;4990022;28;20131;-91
2021/12/02 06:48:05;;;;;;;12.05;4.95;;;6.10;99.90;;;3.85;100.00;98837.06;4984870;28;20043;-91
2021/12/02 06:50:34;;;;;;;9.95;5.20;;;6.10;99.90;;;3.80;100.00;98834.06;4972795;28;20202;-92
2021/12/02 06:53:03;;;;;;;10.57;4.85;;;6.10;99.90;;;3.76;100.00;98849.72;4972675;28;20073;-90
2021/12/02 06:55:33;;;;;;;14.40;5.43;;;6.10;99.90;;;3.74;100.00;98846.38;5006211;28;20049;-92
2021/12/02 06:58:01;;;;;;;12.30;5.90;;;6.10;99.90;;;3.77;100.00;98853.25;5018035;28;20045;-90
2021/12/02 07:00:28;;;;;;;12.60;6.18;;;6.10;99.90;;;3.75;100.00;98853.47;5049377;28;20053;-90
2021/12/02 07:02:56;;;;;;;11.40;6.40;;;6.10;99.90;;;3.79;100.00;98852.06;5049072;28;20155;-91
2021/12/02 07:05:24;;;;;;;16.58;6.70;;;6.10;99.90;;;3.80;100.00;98848.34;5032884;28;20060;-91
2021/12/02 07:07:51;;;;;;;19.88;6.60;;;6.10;99.90;;;3.84;100.00;98852.34;5030534;28;20048;-91
2021/12/02 07:10:23;;;;;;;14.80;6.13;;;6.10;99.90;;;3.86;100.00;98853.00;5029958;28;20057;-91
2021/12/02 07:12:55;;;;;;;15.88;7.60;;;6.10;99.90;;;3.98;100.00;98863.31;5049161;28;20049;-86
2021/12/02 07:15:27;;;;;;;15.05;6.72;;;6.10;99.90;;;4.06;100.00;98860.56;5044176;28;20059;-87
2021/12/02 07:17:57;;;;;;;18.88;6.28;;;6.20;99.90;;;3.98;100.00;98864.19;5030325;28;20124;-88
2021/12/02 07:20:26;;;;;;;16.33;8.25;;;6.10;99.90;;;4.04;100.00;98865.28;5039786;28;20051;-88
2021/12/02 07:22:54;;;;;;;22.90;7.00;;;6.10;99.90;;;4.09;100.00;98873.63;5032990;28;20107;-87
2021/12/02 07:25:21;;;;;;;14.40;6.20;;;6.10;99.90;;;4.00;100.00;98872.03;5044991;28;20577;-88
2021/12/02 07:27:49;;;;;;;16.15;7.78;;;6.10;99.90;;;3.99;100.00;98879.28;5049886;28;20764;-88
2021/12/02 07:30:21;;;;;;;20.45;8.50;;;6.10;99.90;;;3.92;100.00;98878.34;5048277;28;20164;-88
2021/12/02 07:32:54;;;;;;;12.80;7.82;;;6.10;99.90;;;3.97;100.00;98883.19;5049941;28;20049;-88
2021/12/02 07:35:22;;;;;;;15.10;6.70;;;6.00;99.90;;;3.95;100.00;98893.31;5045473;28;20045;-89
2021/12/02 07:37:51;;;;;;;16.77;8.32;;;6.00;99.90;;;3.98;100.00;98901.00;5048459;28;20551;-88
2021/12/02 07:40:21;;;;;;;16.90;8.65;;;6.10;99.90;;;3.93;100.00;98896.16;5049479;28;20056;-87
2021/12/02 07:42:52;;;;;;;17.48;10.25;;;6.10;99.90;;;3.96;100.00;98905.72;5048383;28;20664;-89
2021/12/02 07:45:23;;;;;;;18.48;9.65;;;6.10;99.90;;;3.94;100.00;98902.38;5046064;28;20493;-87
2021/12/02 07:47:51;;;;;;;16.88;10.18;;;6.10;99.90;;;3.94;100.00;98908.63;5036535;28;20120;-87
2021/12/02 07:50:20;;;;;;;16.27;8.95;;;6.10;99.90;;;3.96;100.00;98914.66;5029624;28;20092;-87
2021/12/02 07:52:51;;;;;;;14.18;8.80;;;6.10;99.90;;;3.99;100.00;98908.06;5029842;28;20124;-87
2021/12/02 07:55:20;;;;;;;13.75;8.15;;;6.10;99.90;;;3.91;100.00;98915.19;5043225;28;20049;-88
2021/12/02 07:57:48;;;;;;;13.57;7.72;;;6.10;99.90;;;3.87;100.00;98911.19;5049374;28;20128;-87
2021/12/02 08:00:19;;;;;;;12.30;7.00;;;6.00;99.90;;;3.89;100.00;98916.41;5046729;28;20821;-88
2021/12/02 08:02:50;;;;;;;14.02;6.75;;;6.10;99.90;;;3.95;100.00;98922.91;5040274;28;20166;-87
2021/12/02 08:05:18;;;;;;;10.82;6.13;;;6.00;99.90;;;3.93;100.00;98920.41;5035353;28;20045;-87
2021/12/02 08:07:45;;;;;;;12.27;6.18;;;6.10;99.90;;;3.97;100.00;98927.09;5027379;28;20057;-87
2021/12/02 08:10:16;;;;;;;9.45;5.63;;;6.10;99.90;;;3.99;100.00;98930.44;5048141;28;20044;-89
2021/12/02 08:12:47;;;;;;;10.00;5.55;;;6.10;99.90;;;4.05;100.00;98931.56;5048941;28;20051;-88
2021/12/02 08:15:18;;;;;;;10.70;5.40;;;6.10;99.90;;;4.02;100.00;98929.25;5041817;28;20083;-87
2021/12/02 08:17:51;;;;;;;10.57;5.37;;;6.10;99.90;;;3.96;100.00;98938.03;5046775;28;20127;-88
2021/12/02 08:20:21;;;;;;;8.82;4.90;;;6.10;99.90;;;3.84;100.00;98949.22;5039089;28;21071;-88
2021/12/02 08:22:50;;;;;;;10.43;5.30;;;6.10;99.90;;;3.92;100.00;98956.38;5047708;28;20110;-87
2021/12/02 08:25:21;;;;;;;11.30;5.40;;;6.10;99.90;;;3.95;100.00;98955.22;5044284;28;20135;-88
2021/12/02 08:27:48;;;;;;;11.38;5.35;;;6.10;99.90;;;3.96;100.00;98960.41;5048897;28;20048;-87
2021/12/02 08:30:19;;;;;;;9.63;4.75;;;6.10;99.90;;;3.94;100.00;98959.75;5048674;28;20037;-88
2021/12/02 08:32:46;;;;;;;9.88;4.90;;;6.10;99.90;;;3.91;100.00;98962.81;5043983;28;20045;-87
2021/12/02 08:35:16;;;;;;;9.45;5.07;;;6.10;99.90;;;3.96;100.00;98975.69;5043316;28;20228;-88
2021/12/02 08:37:45;;;;;;;7.70;4.57;;;6.10;99.90;;;3.92;100.00;98978.78;5033038;28;20059;-88
2021/12/02 08:40:16;;;;;;;7.90;4.25;;;6.10;99.90;;;3.89;100.00;98976.44;5028644;28;20132;-87
2021/12/02 08:42:44;;;;;;;;;;;6.00;99.90;;;4.03;100.00;98976.66;5027618;28;20073;-88
2021/12/02 08:45:13;;;;;;;9.38;4.88;;;6.00;99.90;;;4.01;100.00;98987.59;5057784;28;19964;-87
2021/12/02 08:47:44;;;;;;;11.05;4.70;;;6.10;99.90;;;3.85;100.00;98983.19;5044266;28;20046;-88
2021/12/02 08:50:15;;;;;;;11.10;6.07;;;6.10;99.90;;;3.86;100.00;98992.94;5027153;28;20104;-87
2021/12/02 08:52:44;;;;;;;9.10;5.53;;;6.00;99.90;;;3.90;100.00;98996.97;5028309;28;20041;-87
2021/12/02 08:55:12;;;;;;;9.02;6.20;;;6.00;99.90;;;3.96;100.00;98999.94;5043173;28;20057;-89
2021/12/02 08:57:39;;;;;;;10.43;6.05;;;6.00;99.90;;;3.93;100.00;98998.44;5047474;28;20663;-88
2021/12/02 09:00:10;;;;;;;11.32;6.47;;;6.00;99.90;;;3.90;100.00;98996.97;5040831;28;20061;-88
2021/12/02 09:02:38;;;;;;;13.73;7.38;;;6.10;99.90;;;3.90;100.00;99007.72;5047060;28;20053;-88
2021/12/02 09:05:06;;;;;;;14.73;8.07;;;6.10;99.90;;;3.87;100.00;99012.63;5041667;28;20045;-88
2021/12/02 09:07:35;;;;;;;15.18;7.53;;;6.10;99.90;;;3.87;100.00;99008.06;5048260;28;20048;-88
2021/12/02 09:10:03;;;;;;;14.65;7.03;;;6.10;99.90;;;3.93;100.00;99019.97;5044804;28;20059;-88
2021/12/02 09:12:31;;;;;;;13.52;6.43;;;6.10;99.90;;;3.99;100.00;99011.19;5027069;28;20052;-88
2021/12/02 09:14:59;;;;;;;10.55;6.40;;;6.10;99.90;;;4.00;100.00;99009.31;5028507;28;20059;-88
2021/12/02 09:17:26;;;;;;;11.30;6.00;;;6.10;99.90;;;4.04;100.00;99013.34;5026590;28;20042;-87
2021/12/02 09:19:54;;;;;;;13.15;6.63;;;6.20;99.90;;;4.05;100.00;99015.84;5028101;28;20041;-86
2021/12/02 09:22:21;;;;;;;15.27;6.80;;;6.20;99.90;;;4.02;100.00;99020.78;5028156;28;20037;-87
2021/12/02 09:24:50;;;;;;;12.55;6.85;;;6.20;99.90;;;3.99;100.00;99029.19;5037760;28;20048;-88
2021/12/02 09:27:17;;;;;;;13.20;7.55;;;6.20;99.90;;;4.03;100.00;99033.19;5030686;28;20042;-88
2021/12/02 09:29:45;;;;;;;17.90;7.68;;;6.10;99.90;;;4.01;100.00;99035.22;5026723;28;20718;-88
2021/12/02 09:32:12;;;;;;;15.52;8.38;;;6.00;99.90;;;3.97;100.00;99042.00;5026979;28;20050;-88
2021/12/02 09:34:40;;;;;;;17.15;8.90;;;6.10;99.90;;;3.83;100.00;99044.44;5031361;28;20501;-90
2021/12/02 09:37:08;;;;;;;16.25;8.80;;;6.00;99.90;;;3.87;100.00;99053.00;5026460;28;20056;-86
2021/12/02 09:39:35;;;;;;;17.75;8.20;;;6.00;99.90;;;3.86;100.00;99044.06;5027785;28;20050;-87
2021/12/02 09:42:10;;;;;;;16.63;8.43;;;6.00;99.90;;;3.86;100.00;99045.91;5039751;28;20076;-88
2021/12/02 09:44:38;;;;;;;14.93;8.00;;;6.00;99.90;;;3.88;100.00;99052.81;5032665;28;20052;-87
2021/12/02 09:47:06;;;;;;;11.18;6.93;;;6.00;99.90;;;3.87;100.00;99051.13;5039999;28;20060;-87
2021/12/02 09:49:35;;;;;;;13.18;6.13;;;6.00;99.90;;;3.91;100.00;99051.63;5033139;28;20057;-86
2021/12/02 09:52:04;;;;;;;9.55;4.50;;;6.00;99.90;;;3.91;100.00;99071.28;5032460;28;20034;-87
2021/12/02 09:54:38;;;;;;;6.70;3.22;;;6.00;99.90;;;3.89;100.00;99070.63;5038790;28;20037;-87
2021/12/02 09:57:12;;;;;;;6.43;2.70;;;6.00;99.90;;;3.85;100.00;99072.00;5037515;28;20045;-87
2021/12/02 09:59:48;;;;;;;5.00;2.63;;;6.00;99.90;;;3.82;100.00;99075.03;5047138;28;20810;-87
2021/12/02 10:02:19;;;;;;;8.13;2.63;;;6.00;99.90;;;3.80;100.00;99065.47;5036818;28;20111;-87
2021/12/02 10:04:51;;;;;;;10.45;2.78;;;5.90;99.90;;;3.87;100.00;99069.97;5033960;28;20049;-86
2021/12/02 10:07:25;;;;;;;7.47;3.15;;;6.00;99.90;;;3.96;100.00;99068.06;5031455;28;20043;-87
2021/12/02 10:10:01;;;;;;;6.50;3.30;;;6.00;99.90;;;4.00;100.00;99071.22;5032958;28;20044;-87
2021/12/02 10:12:32;;;;;;;6.50;3.33;;;6.00;99.90;;;4.11;100.00;99071.69;5031467;28;20048;-88
2021/12/02 10:15:02;;;;;;;;;;;6.10;99.90;;;4.14;100.00;99078.53;5032003;28;20223;-87
2021/12/02 10:17:35;;;;;;;9.70;3.90;;;6.00;99.90;;;4.07;100.00;99072.19;5054395;28;20343;-87
2021/12/02 10:20:17;;;;;;;8.68;3.92;;;6.00;99.90;;;3.97;100.00;99077.81;5033562;28;20106;-87
2021/12/02 10:23:03;;;;;;;;;;;6.00;99.90;;;3.94;100.00;99071.94;5036494;28;20045;-87
2021/12/02 10:25:31;;;;;;;8.95;4.05;;;6.10;99.90;;;4.00;100.00;99073.91;5036204;28;20057;-88
2021/12/02 10:28:06;;;;;;;8.65;3.80;;;6.10;99.90;;;3.91;100.00;99075.84;5045682;28;20049;-87
2021/12/02 10:30:35;;;;;;;8.80;4.20;;;6.10;99.90;;;3.90;100.00;99076.84;5039446;28;20049;-87
2021/12/02 10:33:02;;;;;;;7.60;4.47;;;6.10;99.90;;;3.89;100.00;99078.69;5039307;28;20482;-89
2021/12/02 10:35:45;;;;;;;8.35;4.50;;;6.10;99.90;;;3.89;100.00;99076.00;5035076;28;20594;-88
2021/12/02 10:38:37;;;;;;;10.48;4.40;;;6.10;99.90;;;3.95;100.00;99079.00;5035983;28;20060;-88
2021/12/02 10:41:07;;;;;;;8.23;4.53;;;6.10;99.90;;;3.98;100.00;99082.19;5033708;28;20160;-88
2021/12/02 10:43:36;;;;;;;8.95;4.80;;;6.10;99.90;;;3.92;100.00;99078.34;5031188;28;20045;-88
2021/12/02 10:46:19;;;;;;;11.80;5.38;;;6.10;99.90;;;4.04;100.00;99076.09;5038473;28;20048;-87